Time;durP1;ratioP1;P1;durP2;ratioP2;P2;SDS_P1;SDS_P2;PMS_P1;PMS_P2;Temp;Humidity;BMP_temperature;BMP_pressure;BME280_temperature;BME280_humidity;BME280_pressure;Samples;Min_cycle;Max_cycle;Signal;HPM_P1;HPM_P2
2023/11/12 00:05:25;;;;;;;29.20;17.10;;;;;;;6.25;100.00;99391.29;223960;1265;138587;-83
2023/11/12 00:11:16;;;;;;;30.40;18.60;;;;;;;6.25;100.00;99392.85;223436;1268;140169;-82
2023/11/12 00:17:17;;;;;;;28.10;15.90;;;;;;;6.24;100.00;99398.30;224068;1265;138963;-83
2023/11/12 00:23:20;;;;;;;27.70;15.40;;;;;;;6.21;100.00;99408.26;223705;1267;139308;-82
2023/11/12 00:29:20;;;;;;;28.50;15.90;;;;;;;6.16;100.00;99412.73;223430;1265;140258;-82
2023/11/12 00:35:11;;;;;;;26.90;14.00;;;;;;;6.09;100.00;99414.34;224015;1266;139428;-82
2023/11/12 00:41:12;;;;;;;22.70;13.20;;;;;;;6.05;100.00;99414.30;223494;1265;140709;-82
2023/11/12 00:46:54;;;;;;;23.80;13.50;;;;;;;6.04;100.00;99418.50;223971;1265;138639;-82
2023/11/12 00:52:56;;;;;;;26.50;14.30;;;;;;;6.05;100.00;99417.42;223389;1268;139790;-82
2023/11/12 00:58:57;;;;;;;24.10;13.60;;;;;;;6.06;100.00;99415.48;223327;1266;140344;-82
2023/11/12 01:04:48;;;;;;;24.50;12.80;;;;;;;6.04;100.00;99418.67;224031;1265;139362;-81
2023/11/12 01:10:46;;;;;;;;;;;;;;;;;;;;;
2023/11/12 01:16:41;;;;;;;;;;;;;;;;;;;;;
2023/11/12 01:22:35;;;;;;;;;;;;;;;;;;;;;
2023/11/12 01:28:30;;;;;;;;;;;;;;;;;;;;;
2023/11/12 01:34:24;;;;;;;;;;;;;;;;;;;;;
2023/11/12 01:40:25;;;;;;;25.90;12.70;;;;;;;6.03;100.00;99411.39;223518;1267;141251;-83
2023/11/12 01:46:12;;;;;;;25.30;14.10;;;;;;;6.01;100.00;99409.65;224050;1266;138594;-84
2023/11/12 01:52:13;;;;;;;26.50;14.10;;;;;;;6.00;100.00;99412.05;223506;1264;140259;-83
2023/11/12 01:58:12;;;;;;;;;;;;;;;;;;;;;
2023/11/12 02:04:03;;;;;;;;;;;;;;;;;;;;;
2023/11/12 02:09:57;;;;;;;;;;;;;;;;;;;;;
2023/11/12 02:15:49;;;;;;;;;;;;;;;;;;;;;
2023/11/12 02:27:50;;;;;;;;;;;;;;;;;;;;;
2023/11/12 02:33:27;;;;;;;28.00;14.70;;;;;;;5.91;100.00;99419.27;223855;1266;220685;-84
2023/11/12 02:39:21;;;;;;;;;;;;;;;;;;;;;
2023/11/12 02:45:10;;;;;;;26.90;14.10;;;;;;;6.00;100.00;99420.88;223913;1266;139602;-82
2023/11/12 02:51:13;;;;;;;26.60;14.30;;;;;;;6.03;100.00;99417.88;223600;1266;140834;-83
2023/11/12 02:57:07;;;;;;;26.00;14.10;;;;;;;6.07;100.00;99418.86;224055;1265;138625;-82
2023/11/12 03:03:08;;;;;;;25.80;14.30;;;;;;;6.12;100.00;99420.79;223536;1265;140813;-83
2023/11/12 03:09:09;;;;;;;29.80;14.10;;;;;;;6.16;100.00;99427.23;223436;1265;141475;-83
2023/11/12 03:15:11;;;;;;;24.30;13.60;;;;;;;6.19;100.00;99428.13;224099;1268;139641;-83
2023/11/12 03:20:51;;;;;;;25.80;14.00;;;;;;;6.24;100.00;99431.25;223513;1266;140856;-82
2023/11/12 03:26:34;;;;;;;24.00;14.00;;;;;;;6.30;100.00;99433.02;224054;1266;139817;-82
2023/11/12 03:32:21;;;;;;;28.80;14.10;;;;;;;6.34;100.00;99430.97;223593;1266;141131;-82
2023/11/12 03:38:19;;;;;;;27.60;14.80;;;;;;;6.38;100.00;99434.14;223530;1266;141326;-82
2023/11/12 03:44:11;;;;;;;28.50;14.70;;;;;;;6.40;100.00;99428.17;223982;1265;139295;-83
2023/11/12 03:50:12;;;;;;;22.50;13.70;;;;;;;6.44;100.00;99429.30;223504;1268;140542;-82
2023/11/12 03:56:01;;;;;;;20.20;13.30;;;;;;;6.49;100.00;99431.07;223954;1264;139155;-82
2023/11/12 04:02:03;;;;;;;23.20;13.70;;;;;;;6.54;100.00;99433.00;223300;1266;140044;-83
2023/11/12 04:07:56;;;;;;;24.50;14.10;;;;;;;6.56;100.00;99434.20;224073;1268;138702;-83
2023/11/12 04:19:45;;;;;;;;;;;;;;;;;;;;;
2023/11/12 04:25:51;;;;;;;;;;;;;;;;;;;;;
2023/11/12 04:31:53;;;;;;;21.90;13.40;;;;;;;6.66;100.00;99444.77;223571;1266;140243;-82
2023/11/12 04:37:44;;;;;;;19.50;11.60;;;;;;;6.69;100.00;99438.17;224032;1268;138751;-83
2023/11/12 04:43:44;;;;;;;20.80;11.20;;;;;;;6.71;100.00;99438.65;224058;1268;138786;-83
2023/11/12 04:49:44;;;;;;;21.70;12.70;;;;;;;6.75;100.00;99447.44;223480;1265;140322;-83
2023/11/12 04:55:30;;;;;;;;;;;;;;;;;;;;;
2023/11/12 05:01:32;;;;;;;23.60;12.60;;;;;;;6.80;100.00;99456.08;223598;1268;139918;-83
2023/11/12 05:07:21;;;;;;;21.10;12.30;;;;;;;6.81;100.00;99458.29;223948;1268;138783;-83
2023/11/12 05:13:23;;;;;;;24.40;13.00;;;;;;;6.83;100.00;99458.85;223968;1268;138621;-81
2023/11/12 05:19:17;;;;;;;22.30;12.10;;;;;;;6.85;100.00;99466.92;223349;1268;140453;-83
2023/11/12 05:25:20;;;;;;;24.50;12.10;;;;;;;6.85;100.00;99464.65;224031;1268;139166;-83
2023/11/12 05:30:58;;;;;;;20.40;11.80;;;;;;;6.85;100.00;99465.76;223377;1268;141296;-83
2023/11/12 05:36:53;;;;;;;19.00;12.10;;;;;;;6.85;100.00;99468.33;224029;1268;138711;-83
2023/11/12 05:42:53;;;;;;;20.30;12.20;;;;;;;6.84;100.00;99474.20;223353;1267;139969;-83
2023/11/12 05:48:49;;;;;;;19.80;11.40;;;;;;;6.86;100.00;99475.36;223304;1265;140635;-83
2023/11/12 05:54:39;;;;;;;;;;;;;;;;;;;;;
2023/11/12 06:00:41;;;;;;;21.40;11.40;;;;;;;6.87;100.00;99485.54;223179;1266;140315;-83
2023/11/12 06:12:43;;;;;;;20.00;11.10;;;;;;;6.88;100.00;99496.64;223402;1266;140386;-84
2023/11/12 06:18:38;;;;;;;19.10;10.80;;;;;;;6.92;100.00;99501.00;223392;1265;140094;-82
2023/11/12 06:24:33;;;;;;;;;;;;;;;;;;;;;
2023/11/12 06:30:35;;;;;;;18.30;10.60;;;;;;;6.89;100.00;99506.75;223598;1267;140198;-83
2023/11/12 06:36:26;;;;;;;19.30;11.30;;;;;;;6.88;100.00;99510.95;224096;1265;108676;-84
2023/11/12 06:42:17;;;;;;;20.40;11.90;;;;;;;6.89;100.00;99523.70;223546;1267;140081;-83
2023/11/12 06:48:11;;;;;;;20.10;11.30;;;;;;;6.91;100.00;99524.10;223460;1267;140487;-85
2023/11/12 06:54:04;;;;;;;;;;;;;;;;;;;;;
2023/11/12 06:59:57;;;;;;;19.30;11.60;;;;;;;6.94;100.00;99527.13;223393;1265;140007;-83
2023/11/12 07:05:49;;;;;;;;;;;;;;;;;;;;;
2023/11/12 07:11:39;;;;;;;21.90;13.40;;;;;;;6.97;100.00;99540.20;223356;1266;140629;-84
2023/11/12 07:17:28;;;;;;;20.60;11.60;;;;;;;6.97;100.00;99545.12;223844;1268;138766;-83
2023/11/12 07:23:30;;;;;;;18.70;11.10;;;;;;;6.95;100.00;99542.84;223915;1266;139511;-83
2023/11/12 07:35:21;;;;;;;20.70;11.70;;;;;;;6.97;100.00;99565.05;223870;1265;139092;-84
2023/11/12 07:46:46;;;;;;;;;;;;;;;;;;;;;
2023/11/12 07:52:49;;;;;;;22.70;13.50;;;;;;;6.91;100.00;99580.77;223266;1265;140350;-83
2023/11/12 07:58:27;;;;;;;23.40;12.80;;;;;;;6.84;100.00;99587.09;223337;1265;140608;-83
2023/11/12 08:04:02;;;;;;;26.00;14.00;;;;;;;6.87;100.00;99584.01;223775;1265;138696;-83
2023/11/12 08:10:04;;;;;;;22.20;13.20;;;;;;;6.90;100.00;99584.66;223373;1265;140176;-83
2023/11/12 08:16:05;;;;;;;21.20;12.00;;;;;;;6.93;100.00;99580.79;223831;1265;139346;-83
2023/11/12 08:21:45;;;;;;;20.70;12.40;;;;;;;6.95;100.00;99583.70;223370;1265;140117;-83
2023/11/12 08:27:36;;;;;;;;;;;;;;;;;;;;;
2023/11/12 08:33:38;;;;;;;22.90;12.60;;;;;;;7.08;100.00;99587.14;224018;1265;245803;-83
2023/11/12 08:39:27;;;;;;;21.50;13.00;;;;;;;7.18;100.00;99592.42;223432;1266;140020;-83
2023/11/12 08:45:21;;;;;;;20.40;11.70;;;;;;;7.25;100.00;99598.98;223972;1265;138337;-82
2023/11/12 08:51:13;;;;;;;;;;;;;;;;;;;;;
2023/11/12 09:02:51;;;;;;;18.50;11.00;;;;;;;7.63;100.00;99612.35;223404;1265;139930;-83
2023/11/12 09:08:21;;;;;;;19.50;10.80;;;;;;;7.84;100.00;99611.36;223428;1265;139922;-83
2023/11/12 09:14:01;;;;;;;19.90;10.60;;;;;;;8.18;100.00;99612.77;223805;1265;139424;-83
2023/11/12 09:19:58;;;;;;;;;;;;;;;;;;;;;
2023/11/12 09:25:33;;;;;;;16.60;10.10;;;;;;;9.03;100.00;99626.52;224087;1265;139127;-83
2023/11/12 09:30:57;;;;;;;;;;;;;;;;;;;;;
2023/11/12 09:36:37;;;;;;;18.50;10.20;;;;;;;9.46;100.00;99626.67;219945;1266;95949;-83
2023/11/12 09:42:10;;;;;;;;;;;;;;;;;;;;;
2023/11/12 09:48:24;;;;;;;16.00;10.00;;;;;;;9.80;100.00;99628.56;223355;1264;141579;-83
2023/11/12 09:53:58;;;;;;;;;;;;;;;;;;;;;
2023/11/12 10:05:51;;;;;;;14.00;8.10;;;;;;;9.66;100.00;99629.16;223920;1265;137623;-82
2023/11/12 10:11:58;;;;;;;12.50;8.50;;;;;;;9.62;100.00;99633.08;223106;1265;140083;-84
2023/11/12 10:18:06;;;;;;;14.60;9.10;;;;;;;9.57;100.00;99633.77;224097;1265;138416;-81
2023/11/12 10:24:06;;;;;;;14.00;8.60;;;;;;;9.49;100.00;99620.17;223894;1265;138709;-83
2023/11/12 10:29:59;;;;;;;;;;;;;;;;;;;;;
2023/11/12 10:35:21;;;;;;;;;;;;;;;;;;;;;
2023/11/12 10:40:50;;;;;;;16.90;10.00;;;;;;;9.56;100.00;99615.48;223366;1265;141699;-83
2023/11/12 10:46:43;;;;;;;20.90;11.80;;;;;;;9.57;100.00;99619.09;223924;1265;139042;-84
2023/11/12 10:52:17;;;;;;;;;;;;;;;;;;;;;
2023/11/12 10:58:18;;;;;;;18.50;10.20;;;;;;;9.60;100.00;99611.71;223365;1265;141362;-82
2023/11/12 11:04:08;;;;;;;;;;;;;;;;;;;;;
2023/11/12 11:10:04;;;;;;;15.70;9.40;;;;;;;9.69;100.00;99607.34;223393;1265;140198;-81
2023/11/12 11:16:23;;;;;;;13.80;9.20;;;;;;;9.74;100.00;99610.11;223801;1265;138694;-82
2023/11/12 11:22:07;;;;;;;18.00;10.10;;;;;;;9.71;100.00;99615.89;223456;1265;139973;-81
2023/11/12 11:27:52;;;;;;;;;;;;;;;;;;;;;
2023/11/12 11:33:54;;;;;;;15.60;10.30;;;;;;;9.58;100.00;99622.71;223852;1265;139192;-82
2023/11/12 11:40:04;;;;;;;14.40;9.40;;;;;;;9.45;100.00;99624.48;223382;1265;140097;-82
2023/11/12 11:46:03;;;;;;;;;;;;;;;;;;;;;
2023/11/12 11:52:14;;;;;;;10.40;6.90;;;;;;;9.35;100.00;99626.88;223392;1265;139911;-81
2023/11/12 11:57:44;;;;;;;;;;;;;;;;;;;;;
2023/11/12 12:03:29;;;;;;;;;;;;;;;;;;;;;
2023/11/12 12:09:13;;;;;;;10.90;6.90;;;;;;;9.15;100.00;99626.66;223563;1265;139609;-82
2023/11/12 12:15:14;;;;;;;;;;;;;;;;;;;;;
2023/11/12 12:21:14;;;;;;;12.10;7.40;;;;;;;9.02;100.00;99619.48;223315;1265;139599;-82
2023/11/12 12:27:13;;;;;;;;;;;;;;;;;;;;;
2023/11/12 12:33:11;;;;;;;;;;;;;;;;;;;;;
2023/11/12 12:38:37;;;;;;;;;;;;;;;9.14;100.00;99628.15;223330;1265;140137;-81
2023/11/12 12:44:27;;;;;;;;;;;;;;;;;;;;;
2023/11/12 12:50:17;;;;;;;13.50;8.60;;;;;;;9.10;100.00;99626.33;223374;1265;140001;-80
2023/11/12 12:55:59;;;;;;;14.40;9.40;;;;;;;9.05;100.00;99622.86;223854;1265;138621;-81
2023/11/12 13:01:51;;;;;;;14.70;8.10;;;;;;;8.98;100.00;99619.61;223364;1264;140331;-82
2023/11/12 13:07:50;;;;;;;;;;;;;;;;;;;;;
2023/11/12 13:13:54;;;;;;;11.30;7.20;;;;;;;8.86;100.00;99630.99;223933;1265;138402;-80
2023/11/12 13:19:24;;;;;;;9.20;5.30;;;;;;;8.82;100.00;99626.74;223251;1265;139805;-80
2023/11/12 13:25:15;;;;;;;10.40;5.40;;;;;;;8.78;100.00;99634.48;223836;1265;138171;-82
2023/11/12 13:30:57;;;;;;;10.40;5.40;;;;;;;8.74;100.00;99638.14;223382;1265;140000;-81
2023/11/12 13:43:00;;;;;;;13.90;7.70;;;;;;;8.71;100.00;99656.15;223479;1265;139360;-81
2023/11/12 13:48:34;;;;;;;;;;;;;;;;;;;;;
2023/11/12 13:54:25;;;;;;;13.30;7.60;;;;;;;8.57;100.00;99659.50;223934;1265;138545;-82
2023/11/12 13:59:51;;;;;;;15.00;7.80;;;;;;;8.57;100.00;99665.63;223207;1265;140244;-82
2023/11/12 14:05:43;;;;;;;13.50;7.50;;;;;;;8.54;100.00;99666.86;223952;1265;138254;-82
2023/11/12 14:11:46;;;;;;;13.40;7.40;;;;;;;8.50;100.00;99669.50;223493;1265;139884;-82
2023/11/12 14:17:42;;;;;;;17.00;8.60;;;;;;;8.50;100.00;99677.88;224021;1265;138975;-82
2023/11/12 14:23:38;;;;;;;13.00;7.30;;;;;;;8.43;100.00;99678.98;223858;1265;362503;-82
2023/11/12 14:29:32;;;;;;;;;;;;;;;;;;;;;
2023/11/12 14:35:16;;;;;;;12.50;6.90;;;;;;;8.31;100.00;99682.11;223893;1264;138884;-82
2023/11/12 14:40:42;;;;;;;15.70;7.50;;;;;;;8.26;100.00;99685.83;223463;1265;139985;-82
2023/11/12 14:46:22;;;;;;;;;;;;;;;;;;;;;
2023/11/12 14:52:02;;;;;;;;;;;;;;;;;;;;;
2023/11/12 14:57:47;;;;;;;20.10;9.90;;;;;;;7.99;100.00;99699.48;224067;1265;138707;-82
2023/11/12 15:03:37;;;;;;;14.00;8.60;;;;;;;7.85;100.00;99693.33;223834;1266;139059;-83
2023/11/12 15:09:21;;;;;;;17.90;7.80;;;;;;;7.78;100.00;99694.74;223446;1265;140089;-81
2023/11/12 15:15:18;;;;;;;;;;;;;;;;;;;;;
2023/11/12 15:21:14;;;;;;;;;;;;;;;;;;;;;
2023/11/12 15:27:17;;;;;;;14.30;7.60;;;;;;;7.60;100.00;99700.73;223847;1265;139016;-80
2023/11/12 15:33:17;;;;;;;10.50;5.00;;;;;;;7.57;100.00;99703.59;223716;1265;139511;-81
2023/11/12 15:39:10;;;;;;;;;;;;;;;;;;;;;
2023/11/12 15:45:01;;;;;;;15.60;8.50;;;;;;;7.51;100.00;99709.08;223979;1265;138934;-82
2023/11/12 15:50:55;;;;;;;19.50;10.20;;;;;;;7.51;100.00;99706.42;223352;1265;140136;-82
2023/11/12 15:56:57;;;;;;;15.80;9.70;;;;;;;7.47;100.00;99707.94;224009;1265;138731;-81
2023/11/12 16:02:58;;;;;;;17.20;8.90;;;;;;;7.43;100.00;99715.00;223454;1264;139434;-81
2023/11/12 16:08:26;;;;;;;;;;;;;;;;;;;;;
2023/11/12 16:14:26;;;;;;;;;;;;;;;;;;;;;
2023/11/12 16:20:18;;;;;;;13.60;7.80;;;;;;;7.31;100.00;99717.67;223472;1265;140652;-81
2023/11/12 16:26:03;;;;;;;13.50;7.50;;;;;;;7.23;100.00;99725.39;223980;1265;138433;-82
2023/11/12 16:31:40;;;;;;;;;;;;;;;;;;;;;
2023/11/12 16:37:32;;;;;;;20.70;11.60;;;;;;;7.09;100.00;99719.02;224108;1265;138643;-82
2023/11/12 16:43:33;;;;;;;25.30;13.20;;;;;;;7.05;100.00;99713.59;223956;1264;247706;-82
2023/11/12 16:49:35;;;;;;;26.80;14.10;;;;;;;7.00;100.00;99716.63;223579;1265;139850;-83
2023/11/12 16:55:28;;;;;;;25.40;13.30;;;;;;;6.96;100.00;99724.33;223981;1264;105307;-83
2023/11/12 17:01:23;;;;;;;27.30;15.20;;;;;;;6.96;100.00;99735.33;223528;1266;140327;-83
2023/11/12 17:07:05;;;;;;;27.60;15.10;;;;;;;6.94;100.00;99737.26;223950;1265;104654;-83
2023/11/12 17:13:04;;;;;;;;;;;;;;;;;;;;;
2023/11/12 17:18:51;;;;;;;33.70;18.10;;;;;;;6.86;100.00;99748.31;223492;1265;140199;-83
2023/11/12 17:24:46;;;;;;;;;;;;;;;;;;;;;
2023/11/12 17:30:19;;;;;;;;;;;;;;;;;;;;;
2023/11/12 17:35:26;;;;;;;30.80;17.00;;;;;;;6.83;100.00;99761.71;223852;1268;139070;-81
2023/11/12 17:41:08;;;;;;;31.40;17.20;;;;;;;6.81;100.00;99763.48;223295;1265;140455;-81
2023/11/12 17:46:42;;;;;;;35.70;17.10;;;;;;;6.79;100.00;99771.72;223836;1268;139281;-82
2023/11/12 17:52:44;;;;;;;;;;;;;;;;;;;;;
2023/11/12 18:04:23;;;;;;;;;;;;;;;;;;;;;
2023/11/12 18:10:04;;;;;;;;;;;;;;;6.71;100.00;99784.96;223330;1268;140215;-82
2023/11/12 18:15:54;;;;;;;23.20;13.30;;;;;;;6.69;100.00;99795.88;224153;1268;124830;-83
2023/11/12 18:21:53;;;;;;;;;;;;;;;;;;;;;
2023/11/12 18:27:40;;;;;;;30.70;14.50;;;;;;;6.68;100.00;99790.45;223984;1268;138794;-83
2023/11/12 18:33:41;;;;;;;35.80;18.40;;;;;;;6.66;100.00;99796.76;223996;1266;139050;-82
2023/11/12 18:39:41;;;;;;;31.10;15.60;;;;;;;6.64;100.00;99803.05;223288;1268;140213;-83
2023/11/12 18:45:13;;;;;;;22.00;12.20;;;;;;;6.62;100.00;99808.40;223979;1266;139280;-83
2023/11/12 18:51:00;;;;;;;16.10;9.60;;;;;;;6.60;100.00;99805.94;223280;1268;140543;-82
2023/11/12 18:57:01;;;;;;;12.30;6.90;;;;;;;6.56;100.00;99808.92;224040;1267;138573;-82
2023/11/12 19:02:38;;;;;;;18.10;8.90;;;;;;;6.57;100.00;99802.92;223417;1265;139755;-82
2023/11/12 19:08:24;;;;;;;;;;;;;;;;;;;;;
2023/11/12 19:14:19;;;;;;;;;;;;;;;;;;;;;
2023/11/12 19:20:02;;;;;;;12.40;7.10;;;;;;;6.59;100.00;99812.80;223211;1268;140378;-82
2023/11/12 19:25:39;;;;;;;14.30;6.30;;;;;;;6.58;100.00;99811.69;224051;1268;108288;-82
2023/11/12 19:31:29;;;;;;;12.30;5.80;;;;;;;6.59;100.00;99820.00;223369;1266;139883;-82
2023/11/12 19:37:32;;;;;;;9.90;5.50;;;;;;;6.60;100.00;99821.80;224098;1266;107494;-82
2023/11/12 19:42:47;;;;;;;13.60;6.30;;;;;;;6.61;100.00;99822.29;223964;1267;108043;-83
2023/11/12 19:48:32;;;;;;;18.30;8.50;;;;;;;6.63;100.00;99826.23;223275;1266;140091;-82
2023/11/12 19:54:25;;;;;;;34.40;16.20;;;;;;;6.65;100.00;99829.48;223897;1268;139101;-82
2023/11/12 20:00:26;;;;;;;25.40;12.90;;;;;;;6.66;100.00;99826.76;223531;1266;140092;-81
2023/11/12 20:06:28;;;;;;;21.90;12.20;;;;;;;6.67;100.00;99822.46;223863;1265;139123;-82
2023/11/12 20:12:14;;;;;;;21.40;12.00;;;;;;;6.67;100.00;99820.83;223305;1268;139941;-82
2023/11/12 20:18:14;;;;;;;;;;;;;;;;;;;;;
2023/11/12 20:24:16;;;;;;;25.90;14.00;;;;;;;6.69;100.00;99824.92;223816;1268;138506;-83
2023/11/12 20:29:55;;;;;;;;;;;;;;;;;;;;;
2023/11/12 20:36:10;;;;;;;17.90;11.00;;;;;;;6.77;100.00;99831.77;223817;1268;138683;-83
2023/11/12 20:41:56;;;;;;;;;;;;;;;;;;;;;
2023/11/12 20:48:04;;;;;;;24.90;15.00;;;;;;;6.81;100.00;99843.57;223975;1268;138567;-84
2023/11/12 20:54:07;;;;;;;29.30;16.50;;;;;;;6.81;100.00;99837.48;223945;1265;139079;-83
2023/11/12 21:00:06;;;;;;;29.60;16.90;;;;;;;6.79;100.00;99841.04;223342;1268;140373;-82
2023/11/12 21:06:08;;;;;;;31.00;17.60;;;;;;;6.79;100.00;99841.20;223984;1268;139170;-83
2023/11/12 21:12:06;;;;;;;;;;;;;;;;;;;;;
2023/11/12 21:18:04;;;;;;;34.80;17.90;;;;;;;6.82;100.00;99840.23;223941;1267;139515;-82
2023/11/12 21:24:05;;;;;;;34.30;18.60;;;;;;;6.83;100.00;99833.89;223945;1268;139122;-82
2023/11/12 21:29:55;;;;;;;;;;;;;;;;;;;;;
2023/11/12 21:35:31;;;;;;;34.10;20.80;;;;;;;6.79;100.00;99829.00;219746;1268;5417089;-82
2023/11/12 21:41:38;;;;;;;40.80;20.50;;;;;;;6.80;100.00;99832.36;223327;1265;140351;-84
2023/11/12 21:47:23;;;;;;;29.50;18.00;;;;;;;6.82;100.00;99832.41;223813;1268;139747;-85
2023/11/12 21:53:13;;;;;;;30.00;16.90;;;;;;;6.82;100.00;99829.20;223751;1267;363228;-84
2023/11/12 21:59:15;;;;;;;29.10;17.10;;;;;;;6.82;100.00;99827.73;223328;1265;141319;-86
2023/11/12 22:04:54;;;;;;;27.20;15.60;;;;;;;6.80;100.00;99833.30;223962;1268;138947;-85
2023/11/12 22:10:42;;;;;;;28.50;16.90;;;;;;;6.81;100.00;99836.45;223295;1268;141008;-85
2023/11/12 22:16:43;;;;;;;26.90;16.00;;;;;;;6.78;100.00;99842.67;223934;1268;139311;-85
2023/11/12 22:22:29;;;;;;;27.70;16.70;;;;;;;6.78;100.00;99848.75;223394;1268;140563;-85
2023/11/12 22:28:30;;;;;;;28.80;15.70;;;;;;;6.77;100.00;99851.15;223406;1266;162857;-85
2023/11/12 22:34:21;;;;;;;28.90;15.90;;;;;;;6.75;100.00;99853.30;223940;1267;138604;-85
2023/11/12 22:40:20;;;;;;;27.60;15.20;;;;;;;6.71;100.00;99856.84;223396;1267;140089;-85
2023/11/12 22:46:19;;;;;;;25.50;14.30;;;;;;;6.71;100.00;99858.33;223940;1267;138685;-86
2023/11/12 22:52:44;;;;;;;27.80;15.80;;;;;;;6.70;100.00;99866.17;223450;1267;140707;-85
2023/11/12 22:58:21;;;;;;;28.70;14.90;;;;;;;6.67;100.00;99872.79;223264;1265;140205;-86
2023/11/12 23:04:22;;;;;;;28.60;14.60;;;;;;;6.66;100.00;99872.84;223790;1265;139281;-85
2023/11/12 23:10:23;;;;;;;26.00;14.50;;;;;;;6.64;100.00;99882.20;223389;1267;140228;-85
2023/11/12 23:16:11;;;;;;;23.60;14.20;;;;;;;6.62;100.00;99889.64;223917;1265;138847;-85
2023/11/12 23:22:14;;;;;;;27.80;13.50;;;;;;;6.59;100.00;99888.65;223152;1269;140154;-85
2023/11/12 23:27:59;;;;;;;22.70;12.70;;;;;;;6.57;100.00;99887.38;223277;1266;140298;-85
2023/11/12 23:40:01;;;;;;;21.10;12.40;;;;;;;6.53;100.00;99881.20;223316;1265;140674;-84
2023/11/12 23:46:03;;;;;;;22.50;12.50;;;;;;;6.50;100.00;99884.12;223844;1266;139488;-84
2023/11/12 23:51:44;;;;;;;21.70;12.10;;;;;;;6.48;100.00;99884.85;223246;1266;140610;-84
2023/11/12 23:57:47;;;;;;;31.60;13.50;;;;;;;6.45;100.00;99888.87;223856;1265;139156;-85
